sensor_id;sensor_type;location;lat;lon;timestamp;pressure;altitude;pressure_sealevel;temperature;humidity
68169;BME280;54981;50.206;15.978;2022-10-16T00:00:36;98859.31;;;13.41;100.00
68169;BME280;54981;50.206;15.978;2022-10-16T00:03:03;98861.56;;;13.48;100.00
68169;BME280;54981;50.206;15.978;2022-10-16T00:05:28;98850.53;;;13.39;100.00
68169;BME280;54981;50.206;15.978;2022-10-16T00:07:54;98858.38;;;13.42;100.00
68169;BME280;54981;50.206;15.978;2022-10-16T00:10:19;98861.56;;;13.48;100.00
68169;BME280;54981;50.206;15.978;2022-10-16T00:12:44;98869.81;;;13.45;100.00
68169;BME280;54981;50.206;15.978;2022-10-16T00:15:11;98871.84;;;13.41;100.00
68169;BME280;54981;50.206;15.978;2022-10-16T00:17:36;98870.00;;;13.41;100.00
68169;BME280;54981;50.206;15.978;2022-10-16T00:20:02;98866.38;;;13.42;100.00
68169;BME280;54981;50.206;15.978;2022-10-16T00:22:28;98868.31;;;13.40;100.00
68169;BME280;54981;50.206;15.978;2022-10-16T00:24:54;98860.50;;;13.37;100.00
68169;BME280;54981;50.206;15.978;2022-10-16T00:27:19;98852.47;;;13.37;100.00
68169;BME280;54981;50.206;15.978;2022-10-16T00:29:44;98852.66;;;13.34;100.00
68169;BME280;54981;50.206;15.978;2022-10-16T00:32:10;98852.88;;;13.31;100.00
68169;BME280;54981;50.206;15.978;2022-10-16T00:34:35;98862.06;;;13.27;100.00
68169;BME280;54981;50.206;15.978;2022-10-16T00:37:00;98868.72;;;13.34;100.00
68169;BME280;54981;50.206;15.978;2022-10-16T00:39:26;98863.34;;;13.34;100.00
68169;BME280;54981;50.206;15.978;2022-10-16T00:41:51;98867.22;;;13.30;100.00
68169;BME280;54981;50.206;15.978;2022-10-16T00:47:24;98865.84;;;13.37;100.00
68169;BME280;54981;50.206;15.978;2022-10-16T00:49:54;98874.59;;;13.39;100.00
68169;BME280;54981;50.206;15.978;2022-10-16T00:52:21;98870.44;;;13.35;100.00
68169;BME280;54981;50.206;15.978;2022-10-16T00:54:49;98867.53;;;13.38;100.00
68169;BME280;54981;50.206;15.978;2022-10-16T00:57:15;98866.56;;;13.39;100.00
68169;BME280;54981;50.206;15.978;2022-10-16T00:59:42;98866.56;;;13.39;100.00
68169;BME280;54981;50.206;15.978;2022-10-16T01:02:11;98872.50;;;13.45;100.00
68169;BME280;54981;50.206;15.978;2022-10-16T01:04:46;98873.34;;;13.45;100.00
68169;BME280;54981;50.206;15.978;2022-10-16T01:09:50;98871.75;;;13.42;100.00
68169;BME280;54981;50.206;15.978;2022-10-16T01:15:20;98880.19;;;13.49;100.00
68169;BME280;54981;50.206;15.978;2022-10-16T01:20:28;98895.19;;;13.52;100.00
68169;BME280;54981;50.206;15.978;2022-10-16T01:23:15;98895.38;;;13.49;100.00
68169;BME280;54981;50.206;15.978;2022-10-16T01:26:13;98901.28;;;13.54;100.00
68169;BME280;54981;50.206;15.978;2022-10-16T01:28:55;98901.19;;;13.55;100.00
68169;BME280;54981;50.206;15.978;2022-10-16T01:31:25;98905.75;;;13.53;100.00
68169;BME280;54981;50.206;15.978;2022-10-16T01:33:57;98904.38;;;13.60;100.00
68169;BME280;54981;50.206;15.978;2022-10-16T01:36:30;98903.63;;;13.58;100.00
68169;BME280;54981;50.206;15.978;2022-10-16T01:38:58;98911.88;;;13.55;100.00
68169;BME280;54981;50.206;15.978;2022-10-16T01:41:33;98910.06;;;13.56;100.00
68169;BME280;54981;50.206;15.978;2022-10-16T01:44:05;98919.59;;;13.60;100.00
68169;BME280;54981;50.206;15.978;2022-10-16T01:46:36;98922.28;;;13.60;100.00
68169;BME280;54981;50.206;15.978;2022-10-16T01:49:03;98926.47;;;13.64;100.00
68169;BME280;54981;50.206;15.978;2022-10-16T01:51:29;98925.28;;;13.68;100.00
68169;BME280;54981;50.206;15.978;2022-10-16T01:53:57;98916.06;;;13.59;100.00
68169;BME280;54981;50.206;15.978;2022-10-16T01:56:24;98912.41;;;13.60;100.00
68169;BME280;54981;50.206;15.978;2022-10-16T01:59:12;98910.25;;;13.53;100.00
68169;BME280;54981;50.206;15.978;2022-10-16T02:01:42;98914.56;;;13.55;100.00
68169;BME280;54981;50.206;15.978;2022-10-16T02:04:18;98923.09;;;13.48;100.00
68169;BME280;54981;50.206;15.978;2022-10-16T02:06:45;98914.09;;;13.49;100.00
68169;BME280;54981;50.206;15.978;2022-10-16T02:09:11;98918.84;;;13.58;100.00
68169;BME280;54981;50.206;15.978;2022-10-16T02:11:37;98909.50;;;13.51;100.00
68169;BME280;54981;50.206;15.978;2022-10-16T02:14:05;98911.34;;;13.50;100.00
68169;BME280;54981;50.206;15.978;2022-10-16T02:16:39;98910.19;;;13.54;100.00
68169;BME280;54981;50.206;15.978;2022-10-16T02:19:05;98908.56;;;13.52;100.00
68169;BME280;54981;50.206;15.978;2022-10-16T02:29:26;98922.88;;;13.51;100.00
68169;BME280;54981;50.206;15.978;2022-10-16T02:31:55;98914.09;;;13.49;100.00
68169;BME280;54981;50.206;15.978;2022-10-16T02:34:24;98917.09;;;13.44;100.00
68169;BME280;54981;50.206;15.978;2022-10-16T02:36:51;98922.97;;;13.49;100.00
68169;BME280;54981;50.206;15.978;2022-10-16T02:39:18;98925.88;;;13.46;100.00
68169;BME280;54981;50.206;15.978;2022-10-16T02:41:44;98922.34;;;13.46;100.00
68169;BME280;54981;50.206;15.978;2022-10-16T02:44:10;98917.63;;;13.49;100.00
68169;BME280;54981;50.206;15.978;2022-10-16T02:46:35;98924.81;;;13.49;100.00
68169;BME280;54981;50.206;15.978;2022-10-16T02:49:00;98921.50;;;13.45;100.00
68169;BME280;54981;50.206;15.978;2022-10-16T02:51:26;98916.22;;;13.43;100.00
68169;BME280;54981;50.206;15.978;2022-10-16T02:53:51;98924.16;;;13.45;100.00
68169;BME280;54981;50.206;15.978;2022-10-16T02:56:17;98911.19;;;13.39;100.00
68169;BME280;54981;50.206;15.978;2022-10-16T02:58:42;98913.88;;;13.39;100.00
68169;BME280;54981;50.206;15.978;2022-10-16T03:01:07;98908.72;;;13.36;100.00
68169;BME280;54981;50.206;15.978;2022-10-16T03:03:33;98911.31;;;13.37;100.00
68169;BME280;54981;50.206;15.978;2022-10-16T03:05:58;98916.66;;;13.37;100.00
68169;BME280;54981;50.206;15.978;2022-10-16T03:08:24;98914.94;;;13.36;100.00
68169;BME280;54981;50.206;15.978;2022-10-16T03:10:51;98913.00;;;13.38;100.00
68169;BME280;54981;50.206;15.978;2022-10-16T03:13:16;98916.44;;;13.40;100.00
68169;BME280;54981;50.206;15.978;2022-10-16T03:15:41;98917.38;;;13.39;100.00
68169;BME280;54981;50.206;15.978;2022-10-16T03:18:07;98917.50;;;13.38;100.00
68169;BME280;54981;50.206;15.978;2022-10-16T03:20:32;98919.22;;;13.39;100.00
68169;BME280;54981;50.206;15.978;2022-10-16T03:22:58;98929.59;;;13.43;100.00
68169;BME280;54981;50.206;15.978;2022-10-16T03:25:23;98926.16;;;13.41;100.00
68169;BME280;54981;50.206;15.978;2022-10-16T03:27:49;98919.34;;;13.37;100.00
68169;BME280;54981;50.206;15.978;2022-10-16T03:30:14;98924.09;;;13.32;100.00
68169;BME280;54981;50.206;15.978;2022-10-16T03:32:40;98919.63;;;13.33;100.00
68169;BME280;54981;50.206;15.978;2022-10-16T03:35:06;98927.00;;;13.29;100.00
68169;BME280;54981;50.206;15.978;2022-10-16T03:37:31;98929.56;;;13.31;100.00
68169;BME280;54981;50.206;15.978;2022-10-16T03:39:56;98926.06;;;13.30;100.00
68169;BME280;54981;50.206;15.978;2022-10-16T03:42:22;98935.38;;;13.37;100.00
68169;BME280;54981;50.206;15.978;2022-10-16T03:44:47;98934.81;;;13.32;100.00
68169;BME280;54981;50.206;15.978;2022-10-16T03:47:13;98930.78;;;13.25;100.00
68169;BME280;54981;50.206;15.978;2022-10-16T03:49:38;98937.09;;;13.24;100.00
68169;BME280;54981;50.206;15.978;2022-10-16T03:52:04;98929.09;;;13.24;100.00
68169;BME280;54981;50.206;15.978;2022-10-16T03:54:29;98942.28;;;13.27;100.00
68169;BME280;54981;50.206;15.978;2022-10-16T03:56:54;98946.56;;;13.30;100.00
68169;BME280;54981;50.206;15.978;2022-10-16T03:59:20;98952.97;;;13.27;100.00
68169;BME280;54981;50.206;15.978;2022-10-16T04:01:45;98952.50;;;13.35;100.00
68169;BME280;54981;50.206;15.978;2022-10-16T04:04:11;98955.34;;;13.32;100.00
68169;BME280;54981;50.206;15.978;2022-10-16T04:06:36;98954.97;;;13.24;100.00
68169;BME280;54981;50.206;15.978;2022-10-16T04:09:02;98967.00;;;13.31;100.00
68169;BME280;54981;50.206;15.978;2022-10-16T04:11:27;98972.44;;;13.29;100.00
68169;BME280;54981;50.206;15.978;2022-10-16T04:13:53;98972.94;;;13.21;100.00
68169;BME280;54981;50.206;15.978;2022-10-16T04:16:18;98969.19;;;13.24;100.00
68169;BME280;54981;50.206;15.978;2022-10-16T04:18:43;98976.44;;;13.22;100.00
68169;BME280;54981;50.206;15.978;2022-10-16T04:21:09;98971.09;;;13.22;100.00
68169;BME280;54981;50.206;15.978;2022-10-16T04:23:34;98959.66;;;13.20;100.00
68169;BME280;54981;50.206;15.978;2022-10-16T04:26:00;98965.75;;;13.22;100.00
68169;BME280;54981;50.206;15.978;2022-10-16T04:28:26;98975.38;;;13.25;100.00
68169;BME280;54981;50.206;15.978;2022-10-16T04:30:51;98976.44;;;13.22;100.00
68169;BME280;54981;50.206;15.978;2022-10-16T04:33:17;98984.38;;;13.24;100.00
68169;BME280;54981;50.206;15.978;2022-10-16T04:35:42;98986.22;;;13.23;100.00
68169;BME280;54981;50.206;15.978;2022-10-16T04:38:07;98985.44;;;13.21;100.00
68169;BME280;54981;50.206;15.978;2022-10-16T04:40:33;98981.78;;;13.22;100.00
68169;BME280;54981;50.206;15.978;2022-10-16T04:43:02;98982.78;;;13.21;100.00
68169;BME280;54981;50.206;15.978;2022-10-16T04:45:27;98981.44;;;13.28;100.00
68169;BME280;54981;50.206;15.978;2022-10-16T04:47:56;98985.94;;;13.28;100.00
68169;BME280;54981;50.206;15.978;2022-10-16T04:50:22;98988.66;;;13.26;100.00
68169;BME280;54981;50.206;15.978;2022-10-16T04:52:47;98984.19;;;13.27;100.00
68169;BME280;54981;50.206;15.978;2022-10-16T04:55:12;98990.31;;;13.29;100.00
68169;BME280;54981;50.206;15.978;2022-10-16T04:57:38;98985.59;;;13.32;100.00
68169;BME280;54981;50.206;15.978;2022-10-16T05:00:05;98983.06;;;13.31;100.00
68169;BME280;54981;50.206;15.978;2022-10-16T05:02:31;98990.88;;;13.34;100.00
68169;BME280;54981;50.206;15.978;2022-10-16T05:04:56;98980.94;;;13.36;100.00
68169;BME280;54981;50.206;15.978;2022-10-16T05:07:21;98981.25;;;13.31;100.00
68169;BME280;54981;50.206;15.978;2022-10-16T05:09:47;98987.44;;;13.32;100.00
68169;BME280;54981;50.206;15.978;2022-10-16T05:12:12;98988.41;;;13.31;100.00
68169;BME280;54981;50.206;15.978;2022-10-16T05:14:37;98979.53;;;13.30;100.00
68169;BME280;54981;50.206;15.978;2022-10-16T05:17:03;98970.31;;;13.34;100.00
68169;BME280;54981;50.206;15.978;2022-10-16T05:19:28;98961.75;;;13.29;100.00
68169;BME280;54981;50.206;15.978;2022-10-16T05:21:54;98964.44;;;13.29;100.00
68169;BME280;54981;50.206;15.978;2022-10-16T05:24:19;98977.78;;;13.29;100.00
68169;BME280;54981;50.206;15.978;2022-10-16T05:26:44;98981.03;;;13.34;100.00
68169;BME280;54981;50.206;15.978;2022-10-16T05:29:10;98979.66;;;13.41;100.00
68169;BME280;54981;50.206;15.978;2022-10-16T05:31:35;98981.41;;;13.42;100.00
68169;BME280;54981;50.206;15.978;2022-10-16T05:34:01;98982.34;;;13.41;100.00
68169;BME280;54981;50.206;15.978;2022-10-16T05:36:27;98994.78;;;13.42;100.00
68169;BME280;54981;50.206;15.978;2022-10-16T05:38:52;99002.38;;;13.49;100.00
68169;BME280;54981;50.206;15.978;2022-10-16T05:41:18;99007.16;;;13.43;100.00
68169;BME280;54981;50.206;15.978;2022-10-16T05:43:48;99005.25;;;13.46;100.00
68169;BME280;54981;50.206;15.978;2022-10-16T05:46:14;99019.19;;;13.51;100.00
68169;BME280;54981;50.206;15.978;2022-10-16T05:48:40;99014.97;;;13.47;100.00
68169;BME280;54981;50.206;15.978;2022-10-16T05:51:07;99026.66;;;13.46;100.00
68169;BME280;54981;50.206;15.978;2022-10-16T05:53:33;99026.44;;;13.49;100.00
68169;BME280;54981;50.206;15.978;2022-10-16T05:55:59;99035.03;;;13.54;100.00
68169;BME280;54981;50.206;15.978;2022-10-16T05:58:28;99034.84;;;13.57;100.00
68169;BME280;54981;50.206;15.978;2022-10-16T06:01:01;99035.47;;;13.60;100.00
68169;BME280;54981;50.206;15.978;2022-10-16T06:03:27;99034.84;;;13.57;100.00
68169;BME280;54981;50.206;15.978;2022-10-16T06:05:53;99044.56;;;13.58;100.00
68169;BME280;54981;50.206;15.978;2022-10-16T06:08:19;99047.50;;;13.68;100.00
68169;BME280;54981;50.206;15.978;2022-10-16T06:10:45;99047.59;;;13.66;100.00
68169;BME280;54981;50.206;15.978;2022-10-16T06:13:11;99039.56;;;13.66;100.00
68169;BME280;54981;50.206;15.978;2022-10-16T06:15:38;99045.88;;;13.65;100.00
68169;BME280;54981;50.206;15.978;2022-10-16T06:18:04;99046.22;;;13.73;100.00
68169;BME280;54981;50.206;15.978;2022-10-16T06:20:30;99044.53;;;13.72;100.00
68169;BME280;54981;50.206;15.978;2022-10-16T06:22:55;99051.41;;;13.76;100.00
68169;BME280;54981;50.206;15.978;2022-10-16T06:25:20;99063.28;;;13.85;100.00
68169;BME280;54981;50.206;15.978;2022-10-16T06:27:46;99058.47;;;13.90;100.00
68169;BME280;54981;50.206;15.978;2022-10-16T06:30:11;99047.78;;;13.90;100.00
68169;BME280;54981;50.206;15.978;2022-10-16T06:32:36;99035.28;;;13.91;100.00
68169;BME280;54981;50.206;15.978;2022-10-16T06:35:02;99036.03;;;13.93;100.00
68169;BME280;54981;50.206;15.978;2022-10-16T06:37:27;99046.16;;;13.88;100.00
68169;BME280;54981;50.206;15.978;2022-10-16T06:39:52;99060.97;;;13.93;100.00
68169;BME280;54981;50.206;15.978;2022-10-16T06:42:18;99058.47;;;13.90;100.00
68169;BME280;54981;50.206;15.978;2022-10-16T06:44:44;99063.53;;;13.95;100.00
68169;BME280;54981;50.206;15.978;2022-10-16T06:47:10;99070.41;;;13.99;100.00
68169;BME280;54981;50.206;15.978;2022-10-16T06:49:35;99077.28;;;14.03;100.00
68169;BME280;54981;50.206;15.978;2022-10-16T06:52:01;99085.84;;;14.08;100.00
68169;BME280;54981;50.206;15.978;2022-10-16T06:54:27;99094.88;;;14.07;100.00
68169;BME280;54981;50.206;15.978;2022-10-16T06:56:52;99093.69;;;14.11;100.00
68169;BME280;54981;50.206;15.978;2022-10-16T06:59:22;99088.31;;;14.11;100.00
68169;BME280;54981;50.206;15.978;2022-10-16T07:01:48;99102.47;;;14.13;100.00
68169;BME280;54981;50.206;15.978;2022-10-16T07:04:13;99102.16;;;14.18;100.00
68169;BME280;54981;50.206;15.978;2022-10-16T07:06:39;99101.00;;;14.22;100.00
68169;BME280;54981;50.206;15.978;2022-10-16T07:09:06;99103.38;;;14.26;100.00
68169;BME280;54981;50.206;15.978;2022-10-16T07:11:34;99100.03;;;14.36;100.00
68169;BME280;54981;50.206;15.978;2022-10-16T07:14:01;99110.50;;;14.53;100.00
68169;BME280;54981;50.206;15.978;2022-10-16T07:16:28;99097.66;;;14.58;100.00
68169;BME280;54981;50.206;15.978;2022-10-16T07:18:55;99104.31;;;14.65;100.00
68169;BME280;54981;50.206;15.978;2022-10-16T07:21:25;99106.16;;;14.65;100.00
68169;BME280;54981;50.206;15.978;2022-10-16T07:23:52;99108.69;;;14.66;100.00
68169;BME280;54981;50.206;15.978;2022-10-16T07:26:18;99121.03;;;14.69;100.00
68169;BME280;54981;50.206;15.978;2022-10-16T07:28:43;99121.69;;;14.73;100.00
68169;BME280;54981;50.206;15.978;2022-10-16T07:31:11;99122.31;;;14.76;100.00
68169;BME280;54981;50.206;15.978;2022-10-16T07:33:37;99139.16;;;14.78;100.00
68169;BME280;54981;50.206;15.978;2022-10-16T07:36:03;99132.84;;;14.79;100.00
68169;BME280;54981;50.206;15.978;2022-10-16T07:38:29;99127.38;;;14.81;100.00
68169;BME280;54981;50.206;15.978;2022-10-16T07:41:03;99128.13;;;14.83;100.00
68169;BME280;54981;50.206;15.978;2022-10-16T07:43:29;99132.19;;;14.88;100.00
68169;BME280;54981;50.206;15.978;2022-10-16T07:45:55;99125.56;;;14.94;100.00
68169;BME280;54981;50.206;15.978;2022-10-16T07:48:22;99129.94;;;14.95;100.00
68169;BME280;54981;50.206;15.978;2022-10-16T07:50:47;99137.75;;;14.98;100.00
68169;BME280;54981;50.206;15.978;2022-10-16T07:53:13;99147.31;;;15.02;100.00
68169;BME280;54981;50.206;15.978;2022-10-16T07:55:39;99144.22;;;15.08;100.00
68169;BME280;54981;50.206;15.978;2022-10-16T07:58:04;99132.19;;;15.14;100.00
68169;BME280;54981;50.206;15.978;2022-10-16T08:00:30;99138.09;;;15.19;100.00
68169;BME280;54981;50.206;15.978;2022-10-16T08:02:57;99136.91;;;15.23;100.00
68169;BME280;54981;50.206;15.978;2022-10-16T08:05:28;99148.06;;;15.30;100.00
68169;BME280;54981;50.206;15.978;2022-10-16T08:07:54;99143.75;;;15.40;100.00
68169;BME280;54981;50.206;15.978;2022-10-16T08:10:21;99150.06;;;15.52;100.00
68169;BME280;54981;50.206;15.978;2022-10-16T08:12:47;99150.91;;;15.52;100.00
68169;BME280;54981;50.206;15.978;2022-10-16T08:15:12;99155.63;;;15.62;100.00
68169;BME280;54981;50.206;15.978;2022-10-16T08:17:38;99157.47;;;15.61;100.00
68169;BME280;54981;50.206;15.978;2022-10-16T08:20:04;99157.66;;;15.58;100.00
68169;BME280;54981;50.206;15.978;2022-10-16T08:22:29;99152.28;;;15.58;100.00
68169;BME280;54981;50.206;15.978;2022-10-16T08:24:54;99160.00;;;15.63;100.00
68169;BME280;54981;50.206;15.978;2022-10-16T08:27:20;99159.16;;;15.62;100.00
68169;BME280;54981;50.206;15.978;2022-10-16T08:29:45;99149.78;;;15.68;100.00
68169;BME280;54981;50.206;15.978;2022-10-16T08:32:11;99159.81;;;15.79;100.00
68169;BME280;54981;50.206;15.978;2022-10-16T08:34:36;99164.94;;;15.82;100.00
68169;BME280;54981;50.206;15.978;2022-10-16T08:37:01;99164.94;;;15.82;100.00
68169;BME280;54981;50.206;15.978;2022-10-16T08:39:27;99169.13;;;15.86;100.00
68169;BME280;54981;50.206;15.978;2022-10-16T08:50:22;99177.94;;;16.12;100.00
68169;BME280;54981;50.206;15.978;2022-10-16T08:52:49;99177.28;;;16.21;100.00
68169;BME280;54981;50.206;15.978;2022-10-16T08:55:31;99172.78;;;16.33;100.00
68169;BME280;54981;50.206;15.978;2022-10-16T08:57:59;99176.28;;;16.46;100.00
68169;BME280;54981;50.206;15.978;2022-10-16T09:00:26;99184.75;;;16.64;100.00
68169;BME280;54981;50.206;15.978;2022-10-16T09:10:59;99187.41;;;17.68;100.00
68169;BME280;54981;50.206;15.978;2022-10-16T09:14:03;99184.34;;;17.62;100.00
68169;BME280;54981;50.206;15.978;2022-10-16T09:16:34;99182.50;;;17.62;100.00
68169;BME280;54981;50.206;15.978;2022-10-16T09:21:43;99187.78;;;17.30;100.00
68169;BME280;54981;50.206;15.978;2022-10-16T09:24:15;99180.53;;;17.31;100.00
68169;BME280;54981;50.206;15.978;2022-10-16T09:26:41;99176.75;;;17.33;100.00
68169;BME280;54981;50.206;15.978;2022-10-16T09:29:10;99173.44;;;17.41;100.00
68169;BME280;54981;50.206;15.978;2022-10-16T09:31:36;99178.34;;;17.36;100.00
68169;BME280;54981;50.206;15.978;2022-10-16T09:34:03;99180.56;;;17.42;100.00
68169;BME280;54981;50.206;15.978;2022-10-16T09:36:36;99182.38;;;17.53;100.00
68169;BME280;54981;50.206;15.978;2022-10-16T09:39:09;99181.06;;;17.58;100.00
68169;BME280;54981;50.206;15.978;2022-10-16T09:41:37;99185.09;;;17.86;100.00
68169;BME280;54981;50.206;15.978;2022-10-16T09:44:06;99185.00;;;18.20;99.51
68169;BME280;54981;50.206;15.978;2022-10-16T09:46:38;99178.91;;;18.50;99.29
68169;BME280;54981;50.206;15.978;2022-10-16T09:49:20;99181.22;;;18.55;94.96
68169;BME280;54981;50.206;15.978;2022-10-16T09:51:46;99182.25;;;18.64;95.75
68169;BME280;54981;50.206;15.978;2022-10-16T09:54:15;99182.25;;;18.64;95.24
68169;BME280;54981;50.206;15.978;2022-10-16T09:56:40;99185.03;;;19.06;93.81
68169;BME280;54981;50.206;15.978;2022-10-16T10:01:40;99180.06;;;19.32;92.41
68169;BME280;54981;50.206;15.978;2022-10-16T10:04:06;99187.59;;;19.07;92.20
68169;BME280;54981;50.206;15.978;2022-10-16T10:06:33;99177.84;;;18.95;93.61
68169;BME280;54981;50.206;15.978;2022-10-16T10:09:19;99191.16;;;19.08;94.59
68169;BME280;54981;50.206;15.978;2022-10-16T10:16:49;99186.94;;;18.94;93.20
68169;BME280;54981;50.206;15.978;2022-10-16T10:19:20;99182.88;;;18.79;93.84
68169;BME280;54981;50.206;15.978;2022-10-16T10:21:46;99168.31;;;18.91;93.60
68169;BME280;54981;50.206;15.978;2022-10-16T10:24:14;99181.44;;;19.26;93.32
68169;BME280;54981;50.206;15.978;2022-10-16T10:32:34;99189.28;;;19.60;89.91
68169;BME280;54981;50.206;15.978;2022-10-16T10:35:29;99201.06;;;19.28;90.15
68169;BME280;54981;50.206;15.978;2022-10-16T10:40:51;99184.41;;;19.75;88.62
68169;BME280;54981;50.206;15.978;2022-10-16T10:46:02;99199.50;;;20.47;85.76
68169;BME280;54981;50.206;15.978;2022-10-16T10:48:51;99196.97;;;20.55;83.31
68169;BME280;54981;50.206;15.978;2022-10-16T10:51:30;99197.22;;;20.52;83.00
68169;BME280;54981;50.206;15.978;2022-10-16T10:57:00;99182.69;;;20.53;82.49
68169;BME280;54981;50.206;15.978;2022-10-16T11:07:33;99195.25;;;19.54;87.07
68169;BME280;54981;50.206;15.978;2022-10-16T11:10:14;99194.06;;;19.68;87.72
68169;BME280;54981;50.206;15.978;2022-10-16T11:12:42;99189.13;;;19.83;87.95
68169;BME280;54981;50.206;15.978;2022-10-16T11:15:20;99175.16;;;20.28;85.02
68169;BME280;54981;50.206;15.978;2022-10-16T11:17:54;99181.72;;;20.54;84.18
68169;BME280;54981;50.206;15.978;2022-10-16T11:20:26;99173.03;;;20.90;82.88
68169;BME280;54981;50.206;15.978;2022-10-16T11:23:00;99168.47;;;20.71;80.60
68169;BME280;54981;50.206;15.978;2022-10-16T11:25:29;99178.25;;;21.20;80.61
68169;BME280;54981;50.206;15.978;2022-10-16T11:28:01;99160.63;;;21.54;78.70
68169;BME280;54981;50.206;15.978;2022-10-16T11:30:29;99165.50;;;21.40;79.36
68169;BME280;54981;50.206;15.978;2022-10-16T11:35:39;99166.84;;;21.64;79.41
68169;BME280;54981;50.206;15.978;2022-10-16T11:40:47;99156.97;;;21.73;77.05
68169;BME280;54981;50.206;15.978;2022-10-16T11:43:19;99167.28;;;21.97;76.20
68169;BME280;54981;50.206;15.978;2022-10-16T11:45:51;99175.22;;;21.98;77.24
68169;BME280;54981;50.206;15.978;2022-10-16T11:48:38;99177.50;;;22.03;76.26
68169;BME280;54981;50.206;15.978;2022-10-16T11:56:52;99163.84;;;22.58;74.26
68169;BME280;54981;50.206;15.978;2022-10-16T11:59:25;99160.59;;;22.72;73.36
68169;BME280;54981;50.206;15.978;2022-10-16T12:04:46;99171.28;;;22.74;72.45
68169;BME280;54981;50.206;15.978;2022-10-16T12:07:19;99172.78;;;22.50;73.75
68169;BME280;54981;50.206;15.978;2022-10-16T12:09:47;99181.38;;;22.46;73.31
68169;BME280;54981;50.206;15.978;2022-10-16T12:17:40;99178.97;;;21.60;77.44
68169;BME280;54981;50.206;15.978;2022-10-16T12:25:34;99190.97;;;21.10;80.59
68169;BME280;54981;50.206;15.978;2022-10-16T12:28:05;99190.59;;;21.42;80.33
68169;BME280;54981;50.206;15.978;2022-10-16T12:30:36;99188.47;;;21.46;78.85
68169;BME280;54981;50.206;15.978;2022-10-16T12:33:21;99182.88;;;21.47;78.90
68169;BME280;54981;50.206;15.978;2022-10-16T12:35:47;99192.59;;;21.40;80.42
68169;BME280;54981;50.206;15.978;2022-10-16T12:38:17;99185.72;;;21.83;77.91
68169;BME280;54981;50.206;15.978;2022-10-16T12:40:44;99188.44;;;21.83;77.26
68169;BME280;54981;50.206;15.978;2022-10-16T12:43:25;99181.41;;;21.63;78.60
68169;BME280;54981;50.206;15.978;2022-10-16T12:48:35;99191.19;;;21.36;79.65
68169;BME280;54981;50.206;15.978;2022-10-16T12:54:16;99194.03;;;21.44;79.74
68169;BME280;54981;50.206;15.978;2022-10-16T12:57:18;99191.16;;;21.56;79.66
68169;BME280;54981;50.206;15.978;2022-10-16T13:00:04;99191.91;;;21.38;79.81
68169;BME280;54981;50.206;15.978;2022-10-16T13:02:47;99193.50;;;21.41;79.66
68169;BME280;54981;50.206;15.978;2022-10-16T13:05:30;99201.19;;;21.73;78.93
68169;BME280;54981;50.206;15.978;2022-10-16T13:08:18;99192.25;;;21.63;77.80
68169;BME280;54981;50.206;15.978;2022-10-16T13:13:37;99203.19;;;21.43;81.40
68169;BME280;54981;50.206;15.978;2022-10-16T13:29:20;99224.63;;;20.78;83.59
68169;BME280;54981;50.206;15.978;2022-10-16T13:31:45;99217.19;;;20.71;83.54
68169;BME280;54981;50.206;15.978;2022-10-16T13:34:18;99222.28;;;20.45;83.41
68169;BME280;54981;50.206;15.978;2022-10-16T13:36:47;99227.69;;;20.45;84.60
68169;BME280;54981;50.206;15.978;2022-10-16T13:39:19;99228.25;;;20.38;84.43
68169;BME280;54981;50.206;15.978;2022-10-16T13:41:57;99229.06;;;20.29;85.54
68169;BME280;54981;50.206;15.978;2022-10-16T13:44:22;99224.25;;;20.33;85.46
68169;BME280;54981;50.206;15.978;2022-10-16T13:46:58;99227.91;;;20.12;86.56
68169;BME280;54981;50.206;15.978;2022-10-16T13:49:23;99229.22;;;20.18;86.76
68169;BME280;54981;50.206;15.978;2022-10-16T13:51:56;99225.34;;;20.11;86.59
68169;BME280;54981;50.206;15.978;2022-10-16T13:54:22;99223.09;;;20.16;86.54
68169;BME280;54981;50.206;15.978;2022-10-16T13:56:48;99223.50;;;20.11;87.21
68169;BME280;54981;50.206;15.978;2022-10-16T13:59:32;99230.03;;;20.09;87.29
68169;BME280;54981;50.206;15.978;2022-10-16T14:01:58;99231.75;;;20.10;87.91
68169;BME280;54981;50.206;15.978;2022-10-16T14:04:29;99235.56;;;20.07;87.62
68169;BME280;54981;50.206;15.978;2022-10-16T14:06:57;99240.53;;;20.02;88.19
68169;BME280;54981;50.206;15.978;2022-10-16T14:09:24;99241.25;;;20.04;88.23
68169;BME280;54981;50.206;15.978;2022-10-16T14:12:00;99237.44;;;20.07;88.10
68169;BME280;54981;50.206;15.978;2022-10-16T14:14:47;99237.56;;;20.05;88.23
68169;BME280;54981;50.206;15.978;2022-10-16T14:17:27;99240.97;;;20.07;88.12
68169;BME280;54981;50.206;15.978;2022-10-16T14:19:55;99230.59;;;20.12;87.14
68169;BME280;54981;50.206;15.978;2022-10-16T14:24:51;99231.31;;;20.05;87.79
68169;BME280;54981;50.206;15.978;2022-10-16T14:27:35;99231.44;;;20.03;86.95
68169;BME280;54981;50.206;15.978;2022-10-16T14:30:19;99241.63;;;19.90;87.07
68169;BME280;54981;50.206;15.978;2022-10-16T14:32:57;99238.31;;;19.76;87.42
68169;BME280;54981;50.206;15.978;2022-10-16T14:35:30;99233.44;;;19.70;87.95
68169;BME280;54981;50.206;15.978;2022-10-16T14:37:57;99227.66;;;19.54;88.74
68169;BME280;54981;50.206;15.978;2022-10-16T14:40:31;99238.19;;;19.57;89.21
68169;BME280;54981;50.206;15.978;2022-10-16T14:42:57;99232.78;;;19.57;88.85
68169;BME280;54981;50.206;15.978;2022-10-16T14:45:27;99232.19;;;19.53;89.03
68169;BME280;54981;50.206;15.978;2022-10-16T14:47:58;99231.19;;;19.54;89.04